sensor_id;sensor_type;location;lat;lon;timestamp;pressure;altitude;pressure_sealevel;temperature;humidity
62928;BME280;51070;52.236;-0.892;2023-04-10T00:01:26;100569.42;;;11.27;65.02
62928;BME280;51070;52.236;-0.892;2023-04-10T00:03:51;100564.55;;;11.26;65.32
62928;BME280;51070;52.236;-0.892;2023-04-10T00:06:17;100557.27;;;11.26;65.09
62928;BME280;51070;52.236;-0.892;2023-04-10T00:08:42;100552.25;;;11.26;65.43
62928;BME280;51070;52.236;-0.892;2023-04-10T00:11:07;100546.70;;;11.25;65.99
62928;BME280;51070;52.236;-0.892;2023-04-10T00:13:33;100539.75;;;11.24;67.05
62928;BME280;51070;52.236;-0.892;2023-04-10T00:15:58;100535.02;;;11.22;67.65
62928;BME280;51070;52.236;-0.892;2023-04-10T00:18:24;100535.48;;;11.19;68.16
62928;BME280;51070;52.236;-0.892;2023-04-10T00:20:49;100534.05;;;11.19;68.46
62928;BME280;51070;52.236;-0.892;2023-04-10T00:23:15;100528.13;;;11.16;68.94
62928;BME280;51070;52.236;-0.892;2023-04-10T00:25:40;100530.10;;;11.13;70.08
62928;BME280;51070;52.236;-0.892;2023-04-10T00:28:06;100524.48;;;11.10;70.89
62928;BME280;51070;52.236;-0.892;2023-04-10T00:30:31;100524.90;;;11.06;72.04
62928;BME280;51070;52.236;-0.892;2023-04-10T00:32:57;100520.11;;;11.02;72.80
62928;BME280;51070;52.236;-0.892;2023-04-10T00:35:23;100520.13;;;10.96;73.81
62928;BME280;51070;52.236;-0.892;2023-04-10T00:37:48;100516.34;;;10.90;75.06
62928;BME280;51070;52.236;-0.892;2023-04-10T00:40:15;100517.44;;;10.86;75.95
62928;BME280;51070;52.236;-0.892;2023-04-10T00:42:40;100505.02;;;10.80;76.85
62928;BME280;51070;52.236;-0.892;2023-04-10T00:45:06;100500.20;;;10.75;77.96
62928;BME280;51070;52.236;-0.892;2023-04-10T00:47:33;100493.81;;;10.70;79.18
62928;BME280;51070;52.236;-0.892;2023-04-10T00:49:59;100489.99;;;10.63;79.93
62928;BME280;51070;52.236;-0.892;2023-04-10T00:52:25;100486.91;;;10.57;80.78
62928;BME280;51070;52.236;-0.892;2023-04-10T00:54:51;100478.94;;;10.50;81.79
62928;BME280;51070;52.236;-0.892;2023-04-10T00:57:17;100470.64;;;10.45;82.94
62928;BME280;51070;52.236;-0.892;2023-04-10T00:59:42;100472.23;;;10.39;83.10
62928;BME280;51070;52.236;-0.892;2023-04-10T01:02:08;100470.23;;;10.36;83.41
62928;BME280;51070;52.236;-0.892;2023-04-10T01:04:37;100463.56;;;10.33;84.30
62928;BME280;51070;52.236;-0.892;2023-04-10T01:07:15;100462.08;;;10.29;84.86
62928;BME280;51070;52.236;-0.892;2023-04-10T01:09:46;100461.30;;;10.27;85.08
62928;BME280;51070;52.236;-0.892;2023-04-10T01:15:16;100452.06;;;10.23;85.61
62928;BME280;51070;52.236;-0.892;2023-04-10T01:20:23;100446.97;;;10.20;86.26
62928;BME280;51070;52.236;-0.892;2023-04-10T01:23:14;100442.59;;;10.18;86.66
62928;BME280;51070;52.236;-0.892;2023-04-10T01:25:45;100435.11;;;10.17;87.26
62928;BME280;51070;52.236;-0.892;2023-04-10T01:30:42;100428.45;;;10.14;87.60
62928;BME280;51070;52.236;-0.892;2023-04-10T01:33:11;100429.12;;;10.13;87.76
62928;BME280;51070;52.236;-0.892;2023-04-10T01:35:39;100433.75;;;10.12;87.76
62928;BME280;51070;52.236;-0.892;2023-04-10T01:38:06;100430.14;;;10.13;87.52
62928;BME280;51070;52.236;-0.892;2023-04-10T01:40:33;100428.40;;;10.13;87.55
62928;BME280;51070;52.236;-0.892;2023-04-10T01:43:01;100426.35;;;10.13;88.36
62928;BME280;51070;52.236;-0.892;2023-04-10T01:45:30;100425.77;;;10.11;88.90
62928;BME280;51070;52.236;-0.892;2023-04-10T01:47:56;100424.52;;;10.10;89.36
62928;BME280;51070;52.236;-0.892;2023-04-10T01:50:22;100419.30;;;10.08;89.64
62928;BME280;51070;52.236;-0.892;2023-04-10T01:52:50;100415.61;;;10.06;90.21
62928;BME280;51070;52.236;-0.892;2023-04-10T01:55:18;100415.73;;;10.04;90.98
62928;BME280;51070;52.236;-0.892;2023-04-10T01:57:45;100414.42;;;10.01;91.63
62928;BME280;51070;52.236;-0.892;2023-04-10T02:00:14;100405.89;;;9.98;91.95
62928;BME280;51070;52.236;-0.892;2023-04-10T02:02:40;100397.70;;;9.96;92.94
62928;BME280;51070;52.236;-0.892;2023-04-10T02:05:07;100394.89;;;9.94;92.83
62928;BME280;51070;52.236;-0.892;2023-04-10T02:07:45;100391.25;;;9.94;93.19
62928;BME280;51070;52.236;-0.892;2023-04-10T02:10:29;100384.63;;;9.92;94.49
62928;BME280;51070;52.236;-0.892;2023-04-10T02:13:05;100382.66;;;9.90;95.26
62928;BME280;51070;52.236;-0.892;2023-04-10T02:15:31;100378.49;;;9.88;96.06
62928;BME280;51070;52.236;-0.892;2023-04-10T02:17:59;100367.77;;;9.87;95.91
62928;BME280;51070;52.236;-0.892;2023-04-10T02:20:29;100359.09;;;9.86;96.72
62928;BME280;51070;52.236;-0.892;2023-04-10T02:22:55;100354.34;;;9.83;98.00
62928;BME280;51070;52.236;-0.892;2023-04-10T02:25:23;100354.98;;;9.81;98.54
62928;BME280;51070;52.236;-0.892;2023-04-10T02:27:48;100352.30;;;9.79;99.38
62928;BME280;51070;52.236;-0.892;2023-04-10T02:30:14;100357.09;;;9.77;99.76
62928;BME280;51070;52.236;-0.892;2023-04-10T02:32:40;100353.43;;;9.76;100.00
62928;BME280;51070;52.236;-0.892;2023-04-10T02:35:07;100355.64;;;9.75;100.00
62928;BME280;51070;52.236;-0.892;2023-04-10T02:37:32;100353.52;;;9.73;100.00
62928;BME280;51070;52.236;-0.892;2023-04-10T02:39:58;100348.19;;;9.73;100.00
62928;BME280;51070;52.236;-0.892;2023-04-10T02:42:24;100342.14;;;9.73;100.00
62928;BME280;51070;52.236;-0.892;2023-04-10T02:44:49;100344.58;;;9.74;100.00
62928;BME280;51070;52.236;-0.892;2023-04-10T02:47:15;100341.48;;;9.74;100.00
62928;BME280;51070;52.236;-0.892;2023-04-10T02:49:41;100334.42;;;9.75;100.00
62928;BME280;51070;52.236;-0.892;2023-04-10T02:52:07;100328.40;;;9.75;100.00
62928;BME280;51070;52.236;-0.892;2023-04-10T02:54:32;100326.98;;;9.74;100.00
62928;BME280;51070;52.236;-0.892;2023-04-10T02:56:58;100325.77;;;9.74;100.00
62928;BME280;51070;52.236;-0.892;2023-04-10T02:59:24;100325.37;;;9.72;100.00
62928;BME280;51070;52.236;-0.892;2023-04-10T03:01:50;100323.81;;;9.71;100.00
62928;BME280;51070;52.236;-0.892;2023-04-10T03:04:17;100320.18;;;9.71;100.00
62928;BME280;51070;52.236;-0.892;2023-04-10T03:06:43;100321.67;;;9.69;100.00
62928;BME280;51070;52.236;-0.892;2023-04-10T03:09:08;100315.58;;;9.67;100.00
62928;BME280;51070;52.236;-0.892;2023-04-10T03:11:34;100308.67;;;9.67;100.00
62928;BME280;51070;52.236;-0.892;2023-04-10T03:13:59;100302.11;;;9.67;100.00
62928;BME280;51070;52.236;-0.892;2023-04-10T03:16:25;100299.70;;;9.67;100.00
62928;BME280;51070;52.236;-0.892;2023-04-10T03:18:51;100290.22;;;9.68;100.00
62928;BME280;51070;52.236;-0.892;2023-04-10T03:21:17;100283.52;;;9.68;100.00
62928;BME280;51070;52.236;-0.892;2023-04-10T03:23:42;100278.54;;;9.69;100.00
62928;BME280;51070;52.236;-0.892;2023-04-10T03:26:08;100276.02;;;9.72;100.00
62928;BME280;51070;52.236;-0.892;2023-04-10T03:28:33;100271.36;;;9.72;100.00
62928;BME280;51070;52.236;-0.892;2023-04-10T03:31:01;100259.29;;;9.72;100.00
62928;BME280;51070;52.236;-0.892;2023-04-10T03:33:28;100255.80;;;9.71;100.00
62928;BME280;51070;52.236;-0.892;2023-04-10T03:35:54;100253.92;;;9.71;100.00
62928;BME280;51070;52.236;-0.892;2023-04-10T03:38:19;100250.84;;;9.72;100.00
62928;BME280;51070;52.236;-0.892;2023-04-10T03:40:45;100245.14;;;9.72;100.00
62928;BME280;51070;52.236;-0.892;2023-04-10T03:43:10;100236.16;;;9.72;100.00
62928;BME280;51070;52.236;-0.892;2023-04-10T03:45:35;100237.56;;;9.73;100.00
62928;BME280;51070;52.236;-0.892;2023-04-10T03:48:01;100241.87;;;9.73;100.00
62928;BME280;51070;52.236;-0.892;2023-04-10T03:50:26;100236.88;;;9.73;100.00
62928;BME280;51070;52.236;-0.892;2023-04-10T03:52:52;100235.14;;;9.73;100.00
62928;BME280;51070;52.236;-0.892;2023-04-10T03:55:17;100228.40;;;9.73;100.00
62928;BME280;51070;52.236;-0.892;2023-04-10T03:57:47;100219.08;;;9.72;100.00
62928;BME280;51070;52.236;-0.892;2023-04-10T04:00:16;100217.38;;;9.73;100.00
62928;BME280;51070;52.236;-0.892;2023-04-10T04:02:42;100224.84;;;9.75;100.00
62928;BME280;51070;52.236;-0.892;2023-04-10T04:05:08;100224.04;;;9.77;100.00
62928;BME280;51070;52.236;-0.892;2023-04-10T04:07:33;100215.48;;;9.79;100.00
62928;BME280;51070;52.236;-0.892;2023-04-10T04:09:59;100212.80;;;9.82;100.00
62928;BME280;51070;52.236;-0.892;2023-04-10T04:12:25;100201.25;;;9.83;100.00
62928;BME280;51070;52.236;-0.892;2023-04-10T04:14:51;100195.09;;;9.85;100.00
62928;BME280;51070;52.236;-0.892;2023-04-10T04:17:17;100190.47;;;9.86;100.00
62928;BME280;51070;52.236;-0.892;2023-04-10T04:19:42;100186.04;;;9.88;100.00
62928;BME280;51070;52.236;-0.892;2023-04-10T04:22:08;100185.52;;;9.88;100.00
62928;BME280;51070;52.236;-0.892;2023-04-10T04:24:34;100177.23;;;9.88;100.00
62928;BME280;51070;52.236;-0.892;2023-04-10T04:26:59;100171.38;;;9.89;100.00
62928;BME280;51070;52.236;-0.892;2023-04-10T04:29:25;100172.10;;;9.90;100.00
62928;BME280;51070;52.236;-0.892;2023-04-10T04:31:51;100162.84;;;9.92;100.00
62928;BME280;51070;52.236;-0.892;2023-04-10T04:34:16;100154.77;;;9.93;100.00
62928;BME280;51070;52.236;-0.892;2023-04-10T04:36:41;100150.45;;;9.94;100.00
62928;BME280;51070;52.236;-0.892;2023-04-10T04:39:07;100143.73;;;9.94;100.00
62928;BME280;51070;52.236;-0.892;2023-04-10T04:41:32;100145.30;;;9.95;100.00
62928;BME280;51070;52.236;-0.892;2023-04-10T04:44:00;100138.27;;;9.96;100.00
62928;BME280;51070;52.236;-0.892;2023-04-10T04:46:25;100141.08;;;9.98;100.00
62928;BME280;51070;52.236;-0.892;2023-04-10T04:48:51;100137.83;;;9.99;100.00
62928;BME280;51070;52.236;-0.892;2023-04-10T04:51:16;100136.68;;;10.02;100.00
62928;BME280;51070;52.236;-0.892;2023-04-10T04:53:42;100134.84;;;10.03;100.00
62928;BME280;51070;52.236;-0.892;2023-04-10T04:56:08;100127.43;;;10.05;100.00
62928;BME280;51070;52.236;-0.892;2023-04-10T04:58:33;100129.22;;;10.07;100.00
62928;BME280;51070;52.236;-0.892;2023-04-10T05:00:59;100123.23;;;10.08;100.00
62928;BME280;51070;52.236;-0.892;2023-04-10T05:03:25;100121.86;;;10.10;100.00
62928;BME280;51070;52.236;-0.892;2023-04-10T05:05:52;100120.20;;;10.12;100.00
62928;BME280;51070;52.236;-0.892;2023-04-10T05:08:18;100116.77;;;10.13;100.00
62928;BME280;51070;52.236;-0.892;2023-04-10T05:10:43;100106.43;;;10.14;100.00
62928;BME280;51070;52.236;-0.892;2023-04-10T05:13:09;100106.61;;;10.15;100.00
62928;BME280;51070;52.236;-0.892;2023-04-10T05:15:34;100101.29;;;10.16;100.00
62928;BME280;51070;52.236;-0.892;2023-04-10T05:18:00;100097.54;;;10.17;100.00
62928;BME280;51070;52.236;-0.892;2023-04-10T05:20:25;100098.09;;;10.18;100.00
62928;BME280;51070;52.236;-0.892;2023-04-10T05:22:51;100092.08;;;10.19;100.00
62928;BME280;51070;52.236;-0.892;2023-04-10T05:25:17;100090.72;;;10.20;100.00
62928;BME280;51070;52.236;-0.892;2023-04-10T05:27:43;100094.88;;;10.20;100.00
62928;BME280;51070;52.236;-0.892;2023-04-10T05:30:09;100095.08;;;10.22;100.00
62928;BME280;51070;52.236;-0.892;2023-04-10T05:32:35;100094.77;;;10.23;100.00
62928;BME280;51070;52.236;-0.892;2023-04-10T05:35:00;100095.85;;;10.25;100.00
62928;BME280;51070;52.236;-0.892;2023-04-10T05:37:25;100094.84;;;10.27;100.00
62928;BME280;51070;52.236;-0.892;2023-04-10T05:39:51;100099.38;;;10.28;100.00
62928;BME280;51070;52.236;-0.892;2023-04-10T05:42:16;100093.91;;;10.30;100.00
62928;BME280;51070;52.236;-0.892;2023-04-10T05:44:43;100088.91;;;10.31;100.00
62928;BME280;51070;52.236;-0.892;2023-04-10T05:47:09;100090.20;;;10.34;100.00
62928;BME280;51070;52.236;-0.892;2023-04-10T05:49:34;100090.25;;;10.36;100.00
62928;BME280;51070;52.236;-0.892;2023-04-10T05:52:00;100087.52;;;10.38;100.00
62928;BME280;51070;52.236;-0.892;2023-04-10T05:54:26;100083.08;;;10.40;100.00
62928;BME280;51070;52.236;-0.892;2023-04-10T05:56:51;100085.87;;;10.41;100.00
62928;BME280;51070;52.236;-0.892;2023-04-10T05:59:16;100081.06;;;10.43;100.00
62928;BME280;51070;52.236;-0.892;2023-04-10T06:01:43;100081.98;;;10.45;100.00
62928;BME280;51070;52.236;-0.892;2023-04-10T06:04:08;100081.16;;;10.47;100.00
62928;BME280;51070;52.236;-0.892;2023-04-10T06:06:34;100077.55;;;10.48;100.00
62928;BME280;51070;52.236;-0.892;2023-04-10T06:08:59;100070.69;;;10.50;100.00
62928;BME280;51070;52.236;-0.892;2023-04-10T06:11:25;100068.84;;;10.52;100.00
62928;BME280;51070;52.236;-0.892;2023-04-10T06:13:50;100068.33;;;10.53;100.00
62928;BME280;51070;52.236;-0.892;2023-04-10T06:16:15;100064.36;;;10.54;100.00
62928;BME280;51070;52.236;-0.892;2023-04-10T06:18:41;100063.02;;;10.55;100.00
62928;BME280;51070;52.236;-0.892;2023-04-10T06:21:07;100053.52;;;10.56;100.00
62928;BME280;51070;52.236;-0.892;2023-04-10T06:23:33;100055.27;;;10.56;100.00
62928;BME280;51070;52.236;-0.892;2023-04-10T06:25:59;100053.75;;;10.57;100.00
62928;BME280;51070;52.236;-0.892;2023-04-10T06:28:24;100051.16;;;10.58;100.00
62928;BME280;51070;52.236;-0.892;2023-04-10T06:30:50;100044.77;;;10.58;100.00
62928;BME280;51070;52.236;-0.892;2023-04-10T06:33:16;100039.93;;;10.59;100.00
62928;BME280;51070;52.236;-0.892;2023-04-10T06:35:41;100040.80;;;10.59;100.00
62928;BME280;51070;52.236;-0.892;2023-04-10T06:38:07;100037.55;;;10.60;100.00
62928;BME280;51070;52.236;-0.892;2023-04-10T06:40:32;100036.85;;;10.60;100.00
62928;BME280;51070;52.236;-0.892;2023-04-10T06:42:59;100038.54;;;10.58;100.00
62928;BME280;51070;52.236;-0.892;2023-04-10T06:45:25;100034.39;;;10.57;100.00
62928;BME280;51070;52.236;-0.892;2023-04-10T06:47:51;100031.59;;;10.56;100.00
62928;BME280;51070;52.236;-0.892;2023-04-10T06:50:16;100028.95;;;10.53;100.00
62928;BME280;51070;52.236;-0.892;2023-04-10T06:52:45;100026.16;;;10.51;100.00
62928;BME280;51070;52.236;-0.892;2023-04-10T06:55:10;100019.53;;;10.49;100.00
62928;BME280;51070;52.236;-0.892;2023-04-10T06:57:37;100015.16;;;10.47;100.00
62928;BME280;51070;52.236;-0.892;2023-04-10T07:00:04;100013.92;;;10.45;100.00
62928;BME280;51070;52.236;-0.892;2023-04-10T07:02:30;100006.79;;;10.43;100.00
62928;BME280;51070;52.236;-0.892;2023-04-10T07:04:56;100006.89;;;10.40;100.00
62928;BME280;51070;52.236;-0.892;2023-04-10T07:07:21;100004.41;;;10.37;100.00
62928;BME280;51070;52.236;-0.892;2023-04-10T07:09:47;99999.70;;;10.35;100.00
62928;BME280;51070;52.236;-0.892;2023-04-10T07:12:12;99994.46;;;10.32;100.00
62928;BME280;51070;52.236;-0.892;2023-04-10T07:14:38;99984.09;;;10.32;100.00
62928;BME280;51070;52.236;-0.892;2023-04-10T07:17:03;99982.17;;;10.31;100.00
62928;BME280;51070;52.236;-0.892;2023-04-10T07:19:29;99977.83;;;10.29;100.00
62928;BME280;51070;52.236;-0.892;2023-04-10T07:21:56;99981.05;;;10.27;100.00
62928;BME280;51070;52.236;-0.892;2023-04-10T07:24:22;99980.51;;;10.26;100.00
62928;BME280;51070;52.236;-0.892;2023-04-10T07:26:47;99976.70;;;10.26;100.00
62928;BME280;51070;52.236;-0.892;2023-04-10T07:29:13;99974.29;;;10.26;100.00
62928;BME280;51070;52.236;-0.892;2023-04-10T07:31:39;99971.33;;;10.24;100.00
62928;BME280;51070;52.236;-0.892;2023-04-10T07:34:05;99973.73;;;10.23;100.00
62928;BME280;51070;52.236;-0.892;2023-04-10T07:36:30;99971.63;;;10.22;100.00
62928;BME280;51070;52.236;-0.892;2023-04-10T07:38:56;99971.43;;;10.21;100.00
62928;BME280;51070;52.236;-0.892;2023-04-10T07:41:22;99965.38;;;10.20;100.00
62928;BME280;51070;52.236;-0.892;2023-04-10T07:43:48;99960.38;;;10.20;100.00
62928;BME280;51070;52.236;-0.892;2023-04-10T07:46:14;99962.12;;;10.22;100.00
62928;BME280;51070;52.236;-0.892;2023-04-10T07:48:39;99956.06;;;10.22;100.00
62928;BME280;51070;52.236;-0.892;2023-04-10T07:51:05;99956.80;;;10.23;100.00
62928;BME280;51070;52.236;-0.892;2023-04-10T07:53:34;99951.84;;;10.26;100.00
62928;BME280;51070;52.236;-0.892;2023-04-10T07:56:00;99944.27;;;10.27;100.00
62928;BME280;51070;52.236;-0.892;2023-04-10T07:58:25;99933.61;;;10.28;100.00
62928;BME280;51070;52.236;-0.892;2023-04-10T08:00:51;99924.66;;;10.30;100.00
62928;BME280;51070;52.236;-0.892;2023-04-10T08:03:16;99918.73;;;10.35;100.00
62928;BME280;51070;52.236;-0.892;2023-04-10T08:05:42;99912.26;;;10.40;100.00
62928;BME280;51070;52.236;-0.892;2023-04-10T08:08:07;99908.91;;;10.46;100.00
62928;BME280;51070;52.236;-0.892;2023-04-10T08:10:35;99899.69;;;10.51;100.00
62928;BME280;51070;52.236;-0.892;2023-04-10T08:13:02;99894.95;;;10.57;100.00
62928;BME280;51070;52.236;-0.892;2023-04-10T08:15:27;99886.35;;;10.59;100.00
62928;BME280;51070;52.236;-0.892;2023-04-10T08:17:53;99881.38;;;10.61;100.00
62928;BME280;51070;52.236;-0.892;2023-04-10T08:20:18;99876.23;;;10.62;100.00
62928;BME280;51070;52.236;-0.892;2023-04-10T08:22:44;99876.22;;;10.62;100.00
62928;BME280;51070;52.236;-0.892;2023-04-10T08:25:09;99873.11;;;10.62;100.00
62928;BME280;51070;52.236;-0.892;2023-04-10T08:27:35;99869.78;;;10.60;100.00
62928;BME280;51070;52.236;-0.892;2023-04-10T08:30:00;99866.34;;;10.60;100.00
62928;BME280;51070;52.236;-0.892;2023-04-10T08:32:26;99857.91;;;10.62;100.00
62928;BME280;51070;52.236;-0.892;2023-04-10T08:34:52;99852.59;;;10.64;100.00
62928;BME280;51070;52.236;-0.892;2023-04-10T08:37:17;99857.30;;;10.67;100.00
62928;BME280;51070;52.236;-0.892;2023-04-10T08:39:43;99851.11;;;10.69;100.00
62928;BME280;51070;52.236;-0.892;2023-04-10T08:42:09;99843.20;;;10.71;100.00
62928;BME280;51070;52.236;-0.892;2023-04-10T08:44:34;99848.45;;;10.74;100.00
62928;BME280;51070;52.236;-0.892;2023-04-10T08:47:01;99846.27;;;10.78;100.00
62928;BME280;51070;52.236;-0.892;2023-04-10T08:49:39;99847.40;;;10.83;100.00
62928;BME280;51070;52.236;-0.892;2023-04-10T08:52:07;99847.95;;;10.86;100.00
62928;BME280;51070;52.236;-0.892;2023-04-10T08:54:37;99839.02;;;10.88;100.00
62928;BME280;51070;52.236;-0.892;2023-04-10T08:57:05;99840.98;;;10.92;100.00
62928;BME280;51070;52.236;-0.892;2023-04-10T08:59:31;99837.41;;;10.97;100.00
62928;BME280;51070;52.236;-0.892;2023-04-10T09:01:57;99835.73;;;10.99;100.00
62928;BME280;51070;52.236;-0.892;2023-04-10T09:04:24;99831.12;;;11.03;100.00
62928;BME280;51070;52.236;-0.892;2023-04-10T09:06:53;99831.17;;;11.06;100.00
62928;BME280;51070;52.236;-0.892;2023-04-10T09:09:18;99828.25;;;11.07;100.00
62928;BME280;51070;52.236;-0.892;2023-04-10T09:14:32;99825.94;;;11.13;100.00
62928;BME280;51070;52.236;-0.892;2023-04-10T09:17:20;99824.29;;;11.18;100.00
62928;BME280;51070;52.236;-0.892;2023-04-10T09:19:56;99819.88;;;11.24;100.00
62928;BME280;51070;52.236;-0.892;2023-04-10T09:22:32;99817.02;;;11.30;100.00
62928;BME280;51070;52.236;-0.892;2023-04-10T09:24:58;99816.56;;;11.34;100.00
62928;BME280;51070;52.236;-0.892;2023-04-10T09:27:31;99813.98;;;11.35;100.00
62928;BME280;51070;52.236;-0.892;2023-04-10T09:29:57;99805.39;;;11.39;100.00
62928;BME280;51070;52.236;-0.892;2023-04-10T09:32:36;99794.60;;;11.47;100.00
62928;BME280;51070;52.236;-0.892;2023-04-10T09:35:02;99795.59;;;11.56;100.00
62928;BME280;51070;52.236;-0.892;2023-04-10T09:37:32;99802.17;;;11.57;100.00
62928;BME280;51070;52.236;-0.892;2023-04-10T09:39:58;99802.64;;;11.53;100.00
62928;BME280;51070;52.236;-0.892;2023-04-10T09:42:31;99801.23;;;11.52;100.00
62928;BME280;51070;52.236;-0.892;2023-04-10T09:44:58;99792.81;;;11.55;100.00
62928;BME280;51070;52.236;-0.892;2023-04-10T09:47:24;99780.08;;;11.61;100.00
62928;BME280;51070;52.236;-0.892;2023-04-10T09:49:53;99778.81;;;11.69;100.00
62928;BME280;51070;52.236;-0.892;2023-04-10T09:54:47;99770.14;;;11.79;100.00
62928;BME280;51070;52.236;-0.892;2023-04-10T09:57:17;99766.55;;;11.83;100.00
62928;BME280;51070;52.236;-0.892;2023-04-10T09:59:54;99762.13;;;11.90;100.00
62928;BME280;51070;52.236;-0.892;2023-04-10T10:02:23;99760.35;;;12.00;100.00
62928;BME280;51070;52.236;-0.892;2023-04-10T10:04:50;99752.52;;;12.13;100.00
62928;BME280;51070;52.236;-0.892;2023-04-10T10:07:16;99753.62;;;12.20;100.00
62928;BME280;51070;52.236;-0.892;2023-04-10T10:09:44;99751.98;;;12.28;100.00
62928;BME280;51070;52.236;-0.892;2023-04-10T10:12:11;99743.55;;;12.35;100.00
62928;BME280;51070;52.236;-0.892;2023-04-10T10:18:02;99731.48;;;12.42;100.00
62928;BME280;51070;52.236;-0.892;2023-04-10T10:20:31;99730.98;;;12.41;100.00
62928;BME280;51070;52.236;-0.892;2023-04-10T10:22:57;99734.44;;;12.42;100.00
62928;BME280;51070;52.236;-0.892;2023-04-10T10:25:23;99731.15;;;12.43;100.00
62928;BME280;51070;52.236;-0.892;2023-04-10T10:27:52;99723.94;;;12.50;100.00
62928;BME280;51070;52.236;-0.892;2023-04-10T10:30:19;99723.35;;;12.62;100.00
62928;BME280;51070;52.236;-0.892;2023-04-10T10:32:45;99723.44;;;12.74;100.00
62928;BME280;51070;52.236;-0.892;2023-04-10T10:35:12;99717.85;;;12.91;100.00
62928;BME280;51070;52.236;-0.892;2023-04-10T10:37:38;99711.92;;;13.13;100.00
62928;BME280;51070;52.236;-0.892;2023-04-10T10:40:22;99713.59;;;13.27;100.00
62928;BME280;51070;52.236;-0.892;2023-04-10T10:45:45;99714.78;;;13.61;100.00
62928;BME280;51070;52.236;-0.892;2023-04-10T10:48:13;99709.07;;;13.64;100.00
62928;BME280;51070;52.236;-0.892;2023-04-10T10:50:53;99705.58;;;13.60;99.60
62928;BME280;51070;52.236;-0.892;2023-04-10T10:53:41;99697.55;;;13.51;99.54
62928;BME280;51070;52.236;-0.892;2023-04-10T10:58:54;99689.64;;;13.28;99.34
62928;BME280;51070;52.236;-0.892;2023-04-10T11:01:23;99679.25;;;13.33;99.62
62928;BME280;51070;52.236;-0.892;2023-04-10T11:03:49;99670.90;;;13.77;98.65
62928;BME280;51070;52.236;-0.892;2023-04-10T11:06:19;99661.45;;;14.37;95.98
62928;BME280;51070;52.236;-0.892;2023-04-10T11:08:47;99654.50;;;14.70;92.18
62928;BME280;51070;52.236;-0.892;2023-04-10T11:11:18;99651.50;;;14.86;90.76
62928;BME280;51070;52.236;-0.892;2023-04-10T11:16:45;99654.48;;;15.34;88.13
62928;BME280;51070;52.236;-0.892;2023-04-10T11:19:11;99660.64;;;15.65;87.24
62928;BME280;51070;52.236;-0.892;2023-04-10T11:22:06;99661.58;;;15.84;84.99
62928;BME280;51070;52.236;-0.892;2023-04-10T11:24:52;99670.23;;;15.94;80.54
62928;BME280;51070;52.236;-0.892;2023-04-10T11:27:37;99658.55;;;16.19;78.15
62928;BME280;51070;52.236;-0.892;2023-04-10T11:30:24;99663.56;;;16.26;77.04
62928;BME280;51070;52.236;-0.892;2023-04-10T11:32:50;99661.36;;;16.64;74.11
62928;BME280;51070;52.236;-0.892;2023-04-10T11:35:19;99655.55;;;16.68;73.78
62928;BME280;51070;52.236;-0.892;2023-04-10T11:37:44;99654.66;;;16.71;71.90
62928;BME280;51070;52.236;-0.892;2023-04-10T11:40:11;99656.23;;;16.71;70.58
62928;BME280;51070;52.236;-0.892;2023-04-10T11:42:36;99641.73;;;16.75;70.64
62928;BME280;51070;52.236;-0.892;2023-04-10T11:45:24;99643.63;;;16.54;67.57
62928;BME280;51070;52.236;-0.892;2023-04-10T11:47:54;99636.63;;;16.77;68.02
62928;BME280;51070;52.236;-0.892;2023-04-10T11:50:20;99633.75;;;17.16;69.26
62928;BME280;51070;52.236;-0.892;2023-04-10T11:52:48;99634.11;;;17.43;66.54
62928;BME280;51070;52.236;-0.892;2023-04-10T11:55:14;99626.65;;;17.27;65.95
62928;BME280;51070;52.236;-0.892;2023-04-10T11:57:41;99620.86;;;16.83;63.70
62928;BME280;51070;52.236;-0.892;2023-04-10T12:00:07;99617.02;;;16.47;65.62
62928;BME280;51070;52.236;-0.892;2023-04-10T12:02:33;99616.09;;;16.33;65.83
62928;BME280;51070;52.236;-0.892;2023-04-10T12:04:58;99618.27;;;16.40;66.18
62928;BME280;51070;52.236;-0.892;2023-04-10T12:07:23;99609.43;;;16.35;64.93
62928;BME280;51070;52.236;-0.892;2023-04-10T12:09:57;99605.00;;;16.24;65.43
62928;BME280;51070;52.236;-0.892;2023-04-10T12:12:34;99599.65;;;15.95;64.72
62928;BME280;51070;52.236;-0.892;2023-04-10T12:15:06;99598.95;;;15.96;65.47
62928;BME280;51070;52.236;-0.892;2023-04-10T12:17:47;99595.86;;;16.13;63.76
62928;BME280;51070;52.236;-0.892;2023-04-10T12:20:14;99594.98;;;16.14;61.70
62928;BME280;51070;52.236;-0.892;2023-04-10T12:22:40;99593.27;;;16.29;61.30
62928;BME280;51070;52.236;-0.892;2023-04-10T12:25:11;99609.20;;;16.42;61.18
62928;BME280;51070;52.236;-0.892;2023-04-10T12:27:36;99617.50;;;16.30;60.64
62928;BME280;51070;52.236;-0.892;2023-04-10T12:30:06;99616.19;;;16.21;58.29
62928;BME280;51070;52.236;-0.892;2023-04-10T12:32:32;99616.00;;;16.22;58.94
62928;BME280;51070;52.236;-0.892;2023-04-10T12:34:58;99642.03;;;16.15;59.03
62928;BME280;51070;52.236;-0.892;2023-04-10T12:40:12;99657.38;;;15.52;57.70
62928;BME280;51070;52.236;-0.892;2023-04-10T12:42:41;99662.17;;;15.27;57.66
62928;BME280;51070;52.236;-0.892;2023-04-10T12:45:07;99665.88;;;15.08;57.56
62928;BME280;51070;52.236;-0.892;2023-04-10T12:50:12;99636.91;;;14.78;60.35
62928;BME280;51070;52.236;-0.892;2023-04-10T12:52:42;99644.88;;;14.93;61.40
62928;BME280;51070;52.236;-0.892;2023-04-10T12:55:19;99649.70;;;15.07;60.76
62928;BME280;51070;52.236;-0.892;2023-04-10T12:57:48;99647.96;;;15.08;61.85
62928;BME280;51070;52.236;-0.892;2023-04-10T13:00:17;99648.86;;;15.00;62.77
62928;BME280;51070;52.236;-0.892;2023-04-10T13:02:44;99649.94;;;14.89;64.25
62928;BME280;51070;52.236;-0.892;2023-04-10T13:05:10;99633.79;;;14.69;64.87
62928;BME280;51070;52.236;-0.892;2023-04-10T13:07:37;99631.91;;;14.57;66.14
62928;BME280;51070;52.236;-0.892;2023-04-10T13:10:04;99642.34;;;14.38;67.90
62928;BME280;51070;52.236;-0.892;2023-04-10T13:12:30;99653.95;;;14.12;69.29